Terminal Aerodrome Forecast
Issued by NWS

Home | Current Version | Previous Version | Graphics & Text | Print | Product List | Glossary Off
Versions: 1 2 3 4 5 6 7 8 9 10 11 12 13 14

000
FTUS45 KGGW 250520
TAFGDV
TAF
KGDV 250520Z 2506/2606 VRB04KT P6SM OVC050
     FM250900 27004KT P6SM BKN025 OVC029
     FM251000 28006KT P6SM OVC016
     FM252300 26010KT P6SM SCT030 BKN035=

USA.gov is the U.S. government's official web portal to all federal, state and local government web resources and services.